Rechercher aéroport 
image banner adimage banner adimage banner ad
image banner ad

50CA - St Mary Medical Center

Situé à Long Beach, United States

ICAO - 50CA, IATA -

Données fournies par Airmate  

Information générale

Coordonnées: N33°46'50" W118°11'9"
Élévation : 174 feet MSL.
Variation magnétique : 14° East
Voir autres Aéroports à California

Données opérationnelles

Special qualification required
Heure actuelle UTC:
Heure actuelle locale:
METAR: KLGB 262153Z VRB05KT 10SM OVC022 24/17 A2994 RMK AO2 SLP138 T02390172
TAF: KLGB 261740Z 2618/2718 VRB04KT P6SM VCSH SCT100 FM262000 19008KT P6SM VCSH OVC100 FM270000 29008KT P6SM OVC100 FM270400 VRB03KT P6SM BKN015 OVC100 FM271000 VRB03KT P6SM OVC008
Voir NOTAMs / SUP AIP / TFR affectant cet aéroport [VIEW]
Fréquences de communication: [VIEW]

Pistes:

Coordonnées de l'aéroport

Adresse: Long Beach United States

Vue satellite de 50CA